Portada
METAR-TAF:

METAR-TAF

Aeropuertos :

Aeropuerto Internacional de La Chinita

Maracaibo, Venezuela

latitud: 10-34N, longitud: 071-44W, altitud: 66 m

METAR: falta

Hora: 06:25 (10:25 UTC)

Pronóstico

El informe se hizo hace 12 horas y 25 minutos, a las 22:00 UTC
Pronóstico válido del 18 a las 18 UTC al 19 a las 18 UTC
Viento 6 kt del este
Visibilidad 10 km o más
Escasas nubes a una altura de 1300 ft
Temporalmente
del 18 a las 18 UTC al 18 a las 22 UTC
Viento 4 kt del este
Nubes dispersas a una altura de 1300 ft

TAF: SVMC 182200Z 1818/1918 09006KT 9999 FEW013 TX34/19Z TN24/09Z TEMPO 1818/1822 09004KT SCT013

Observaciones y pronósticos meteorológicos de más de 4000 aeropuertos (mensajes METAR y TAF).

Los puntos amarillos y rojos representan las estaciones disponibles.

Ponga el ratón en el punto deseado para ver el nombre de la estación.

Haga clic para ver las observaciones y los pronósticos meteorológicos.

Para cambiar el mapa : haga clic en los botones verdes con una cruz de color negro para hacer un zoom, en el botón verde con un guión para alejar o en las flechas verdes para mapas adyacentes.


METAR-TAF: